createdAt,value
2022-08-09T00:00:04.642Z,0.00
2022-08-09T00:10:00.133Z,0.00
2022-08-09T00:20:00.158Z,0.00
2022-08-09T00:30:16.662Z,0.00
2022-08-09T00:40:10.455Z,0.00
2022-08-09T00:50:00.126Z,0.00
2022-08-09T01:00:00.708Z,0.00
2022-08-09T01:10:01.683Z,0.00
2022-08-09T01:20:02.064Z,0.00
2022-08-09T01:30:00.116Z,0.00
2022-08-09T01:40:00.110Z,0.00
2022-08-09T01:50:00.134Z,0.00
2022-08-09T02:00:09.174Z,0.00
2022-08-09T02:10:01.294Z,0.00
2022-08-09T02:20:01.274Z,0.00
2022-08-09T02:30:00.091Z,0.00
2022-08-09T02:40:02.981Z,0.00
2022-08-09T02:50:01.386Z,0.00
2022-08-09T03:00:21.728Z,0.11
2022-08-09T03:10:00.435Z,0.91
2022-08-09T03:20:03.551Z,4.30
2022-08-09T03:30:01.138Z,12.79
2022-08-09T03:40:00.242Z,31.25
2022-08-09T03:50:00.128Z,63.75
2022-08-09T04:00:00.665Z,121.67
2022-08-09T04:10:00.144Z,216.67
2022-08-09T04:20:02.350Z,307.08
2022-08-09T04:30:00.092Z,425.42
2022-08-09T04:40:00.130Z,315.00
2022-08-09T04:50:00.131Z,880.83
2022-08-09T05:00:00.109Z,1027.08
2022-08-09T05:10:01.197Z,1369.58
2022-08-09T05:20:00.120Z,825.00
2022-08-09T05:30:00.101Z,953.33
2022-08-09T05:40:00.242Z,1141.67
2022-08-09T05:50:15.603Z,2524.17
2022-08-09T06:00:00.150Z,2637.08
2022-08-09T06:10:02.568Z,2667.50
2022-08-09T06:20:00.140Z,2317.50
2022-08-09T06:30:04.783Z,2708.33
2022-08-09T06:40:01.858Z,2811.67
2022-08-09T06:50:12.465Z,3920.42
2022-08-09T07:00:53.653Z,3840.00
2022-08-09T07:10:12.763Z,3810.83
2022-08-09T07:20:00.207Z,3542.50
2022-08-09T07:30:00.216Z,3280.00
2022-08-09T07:40:00.187Z,3274.17
2022-08-09T07:50:05.612Z,3707.08
2022-08-09T08:00:03.243Z,3950.83
2022-08-09T08:10:05.736Z,3903.33
2022-08-09T08:20:00.121Z,3507.50
2022-08-09T08:30:00.121Z,3191.25
2022-08-09T08:40:00.244Z,3274.58
2022-08-09T08:50:02.605Z,3680.83
2022-08-09T09:00:00.133Z,2852.92
2022-08-09T09:10:02.563Z,2959.17
2022-08-09T09:20:00.155Z,3082.50
2022-08-09T09:30:08.665Z,3164.58
2022-08-09T09:40:00.827Z,3255.42
2022-08-09T09:50:07.690Z,3368.33
2022-08-09T10:00:00.113Z,3526.67
2022-08-09T10:10:03.050Z,3733.33
2022-08-09T10:20:00.363Z,3875.42
2022-08-09T10:30:16.465Z,4131.67
2022-08-09T10:40:00.212Z,4641.25
2022-08-09T10:50:00.151Z,31831.67
2022-08-09T11:00:01.528Z,33777.50
2022-08-09T11:10:00.129Z,34485.83
2022-08-09T11:20:07.626Z,7101.25
2022-08-09T11:30:02.370Z,35415.00
2022-08-09T11:40:00.250Z,23366.25
2022-08-09T11:50:54.459Z,7585.83
2022-08-09T12:00:00.104Z,6528.75
2022-08-09T12:10:00.126Z,9424.58
2022-08-09T12:20:01.465Z,37305.83
2022-08-09T12:30:04.481Z,8237.92
2022-08-09T12:40:00.143Z,22005.42
2022-08-09T12:50:00.174Z,9019.17
2022-08-09T13:00:02.988Z,26018.75
2022-08-09T13:10:00.928Z,37501.67
2022-08-09T13:20:06.626Z,36308.33
2022-08-09T13:30:03.384Z,31824.17
2022-08-09T13:41:22.146Z,10716.67
2022-08-09T13:50:00.819Z,31201.67
2022-08-09T14:00:00.125Z,24602.08
2022-08-09T14:10:00.114Z,31812.50
2022-08-09T14:20:00.121Z,31176.67
2022-08-09T14:30:18.797Z,29211.67
2022-08-09T14:40:00.298Z,27762.50
2022-08-09T14:50:01.282Z,28517.50
2022-08-09T15:00:00.075Z,29366.67
2022-08-09T15:10:04.351Z,21613.75
2022-08-09T15:20:02.569Z,22025.00
2022-08-09T15:30:48.064Z,7534.17
2022-08-09T15:40:00.179Z,5830.00
2022-08-09T15:50:00.857Z,6693.75
2022-08-09T16:00:00.130Z,19478.75
2022-08-09T16:10:04.066Z,7437.08
2022-08-09T16:20:03.756Z,6633.75
2022-08-09T16:30:01.209Z,12224.58
2022-08-09T16:40:04.547Z,6501.25
2022-08-09T16:50:28.426Z,4955.83
2022-08-09T17:00:00.108Z,10441.67
2022-08-09T17:10:02.075Z,13244.17
2022-08-09T17:20:30.796Z,10892.08
2022-08-09T17:30:00.123Z,8654.17
2022-08-09T17:40:00.224Z,2671.25
2022-08-09T17:50:07.616Z,2060.42
2022-08-09T18:00:00.827Z,1725.00
2022-08-09T18:10:03.938Z,1320.42
2022-08-09T18:20:53.140Z,914.58
2022-08-09T18:30:36.890Z,572.92
2022-08-09T18:40:00.151Z,306.67
2022-08-09T18:50:03.103Z,127.92
2022-08-09T19:00:03.837Z,31.67
2022-08-09T19:10:13.543Z,6.56
2022-08-09T19:20:00.931Z,1.36
2022-08-09T19:30:21.759Z,0.34
2022-08-09T19:40:03.530Z,0.00
2022-08-09T19:50:05.592Z,0.00
2022-08-09T20:00:05.979Z,0.00
2022-08-09T20:10:06.633Z,0.00
2022-08-09T20:20:00.113Z,0.00
2022-08-09T20:30:00.112Z,0.00
2022-08-09T20:40:14.560Z,0.00
2022-08-09T20:50:00.151Z,0.00
2022-08-09T21:00:21.184Z,0.00
2022-08-09T21:10:01.206Z,0.00
2022-08-09T21:20:04.080Z,0.00
2022-08-09T21:30:01.267Z,0.00
2022-08-09T21:40:00.281Z,0.00
2022-08-09T21:50:01.278Z,0.00
2022-08-09T22:00:00.087Z,0.00
2022-08-09T22:10:01.381Z,0.00
2022-08-09T22:20:00.726Z,0.00
2022-08-09T22:30:00.136Z,0.00
2022-08-09T22:40:00.258Z,0.00
2022-08-09T22:50:00.124Z,0.00
2022-08-09T23:00:00.108Z,0.00
2022-08-09T23:10:00.118Z,0.00
2022-08-09T23:20:01.236Z,0.00
2022-08-09T23:30:00.159Z,0.00
2022-08-09T23:40:00.142Z,0.00
2022-08-09T23:50:00.133Z,0.00
